Terminal Aerodrome Forecast
Issued by NWS

Home | Current Version | Previous Version | Text Only | Print | Product List | Glossary On
Versions: 1 2 3 4 5 6 7 8 9 10 11 12 13 14 15 16 17 18 19 20 21
000
FTUS41 KBOX 252335
TAFACK
TAF
KACK 252335Z 2600/2624 02010KT P6SM SCT015 OVC090
     FM260300 03009KT P6SM BKN040
     FM260700 04008KT P6SM SCT250
     FM261800 09013KT P6SM BKN030
     FM261900 09013KT P6SM BKN045=

USA.gov is the U.S. government's official web portal to all federal, state and local government web resources and services.